createdAt,value
2022-07-31T04:02:42.780Z,5.30
2022-07-31T04:05:11.343Z,5.30
2022-07-31T04:07:39.485Z,5.37
2022-07-31T04:10:09.253Z,5.23
2022-07-31T04:12:37.545Z,5.37
2022-07-31T04:15:06.875Z,5.37
2022-07-31T04:17:35.232Z,5.30
2022-07-31T04:20:05.920Z,5.30
2022-07-31T04:22:34.547Z,5.27
2022-07-31T04:25:03.616Z,5.30
2022-07-31T04:27:31.751Z,10.87
2022-07-31T04:29:59.872Z,5.30
2022-07-31T04:32:28.001Z,5.23
2022-07-31T04:34:56.274Z,5.23
2022-07-31T04:37:26.745Z,5.23
2022-07-31T04:39:54.868Z,5.27
2022-07-31T04:42:23.199Z,5.17
2022-07-31T04:44:51.966Z,5.17
2022-07-31T04:47:22.314Z,5.30
2022-07-31T04:49:50.878Z,5.27
2022-07-31T04:52:40.124Z,5.27
2022-07-31T04:55:09.694Z,5.30
2022-07-31T04:57:37.839Z,5.30
2022-07-31T05:00:08.576Z,5.30
2022-07-31T05:02:36.738Z,5.30
2022-07-31T05:05:05.786Z,5.30
2022-07-31T05:07:35.345Z,5.30
2022-07-31T05:10:03.490Z,5.33
2022-07-31T05:12:31.583Z,5.33
2022-07-31T05:14:59.688Z,5.50
2022-07-31T05:17:27.803Z,5.30
2022-07-31T05:19:55.807Z,5.33
2022-07-31T05:22:23.847Z,6.10
2022-07-31T05:24:53.224Z,5.33
2022-07-31T05:27:21.296Z,5.40
2022-07-31T05:29:49.443Z,5.40
2022-07-31T05:32:17.907Z,5.33
2022-07-31T05:34:46.155Z,5.30
2022-07-31T05:37:14.250Z,5.40
2022-07-31T05:39:42.315Z,5.40
2022-07-31T05:42:12.073Z,5.40
2022-07-31T05:44:40.117Z,5.40
2022-07-31T05:47:08.835Z,5.40
2022-07-31T05:49:37.113Z,5.43
2022-07-31T05:52:06.596Z,5.40
2022-07-31T05:54:34.906Z,5.43
2022-07-31T05:57:02.978Z,5.40
2022-07-31T05:59:34.707Z,5.47
2022-07-31T06:02:03.087Z,5.47
2022-07-31T06:04:31.340Z,5.47
2022-07-31T06:06:59.402Z,5.43
2022-07-31T06:09:27.508Z,5.80
2022-07-31T06:11:55.596Z,5.57
2022-07-31T06:14:23.705Z,5.50
2022-07-31T06:16:53.160Z,5.40
2022-07-31T06:19:24.340Z,5.43
2022-07-31T06:21:54.046Z,5.43
2022-07-31T06:24:22.297Z,5.40
2022-07-31T06:26:50.425Z,5.40
2022-07-31T06:29:18.716Z,5.50
2022-07-31T06:31:53.324Z,5.40
2022-07-31T06:34:21.569Z,5.80
2022-07-31T06:36:49.636Z,5.60
2022-07-31T06:39:17.980Z,5.47
2022-07-31T06:41:47.302Z,5.40
2022-07-31T06:44:16.963Z,6.37
2022-07-31T06:46:49.055Z,5.40
2022-07-31T06:49:19.463Z,5.33
2022-07-31T06:51:47.605Z,5.47
2022-07-31T06:54:16.009Z,5.33
2022-07-31T06:56:44.260Z,5.47
2022-07-31T06:59:12.555Z,5.37
2022-07-31T07:01:40.700Z,6.40
2022-07-31T07:04:09.215Z,5.40
2022-07-31T07:06:38.633Z,5.33
2022-07-31T07:09:06.801Z,5.40
2022-07-31T07:11:34.973Z,5.30
2022-07-31T07:14:03.027Z,5.40
2022-07-31T07:16:31.118Z,5.40
2022-07-31T07:18:59.197Z,5.37
2022-07-31T07:21:27.277Z,5.30
2022-07-31T07:23:56.664Z,5.70
2022-07-31T07:26:24.952Z,5.40
2022-07-31T07:28:53.000Z,5.30
2022-07-31T07:31:21.137Z,5.40
2022-07-31T07:33:51.461Z,5.37
2022-07-31T07:36:22.384Z,5.30
2022-07-31T07:38:55.018Z,5.40
2022-07-31T07:41:25.767Z,6.83
2022-07-31T07:43:54.566Z,5.30
2022-07-31T07:46:23.477Z,5.30
2022-07-31T07:48:52.407Z,5.37
2022-07-31T07:51:21.254Z,6.67
2022-07-31T07:53:50.135Z,5.30
2022-07-31T07:56:18.652Z,5.97
2022-07-31T07:58:49.594Z,5.30
2022-07-31T08:01:18.102Z,5.40
2022-07-31T08:03:49.254Z,5.33
2022-07-31T08:06:21.019Z,5.37
2022-07-31T08:08:49.271Z,5.30
2022-07-31T08:11:18.059Z,5.30
2022-07-31T08:13:51.066Z,5.30
2022-07-31T08:16:20.697Z,5.60
2022-07-31T08:18:49.587Z,5.30
2022-07-31T08:21:17.740Z,5.70
2022-07-31T08:23:45.909Z,5.40
2022-07-31T08:26:14.612Z,5.40
2022-07-31T08:28:50.076Z,5.30
2022-07-31T08:31:20.804Z,5.43
2022-07-31T08:33:48.834Z,5.90
2022-07-31T08:36:16.987Z,5.40
2022-07-31T08:38:45.116Z,5.30
2022-07-31T08:41:15.344Z,5.40
2022-07-31T08:43:59.868Z,5.30
2022-07-31T08:46:36.950Z,5.50
2022-07-31T08:49:07.775Z,5.43
2022-07-31T08:51:50.530Z,5.30
2022-07-31T08:54:21.698Z,5.30
2022-07-31T08:56:52.482Z,5.40
2022-07-31T08:59:22.006Z,6.33
2022-07-31T09:01:53.060Z,5.50
2022-07-31T09:04:21.249Z,5.27
2022-07-31T09:06:49.514Z,5.30
2022-07-31T09:09:18.862Z,5.80
2022-07-31T09:11:53.807Z,6.00
2022-07-31T09:14:30.633Z,5.30
2022-07-31T09:17:00.214Z,5.30
2022-07-31T09:19:51.823Z,5.50
2022-07-31T09:22:23.613Z,5.87
2022-07-31T09:24:52.518Z,5.30
2022-07-31T09:27:21.252Z,5.23
2022-07-31T09:29:50.035Z,5.23
2022-07-31T09:32:21.847Z,5.30
2022-07-31T09:34:50.425Z,5.50
2022-07-31T09:37:21.419Z,6.00
2022-07-31T09:39:55.190Z,5.27
2022-07-31T09:42:39.745Z,5.23
2022-07-31T09:45:22.316Z,5.33
2022-07-31T09:48:04.790Z,5.30
2022-07-31T09:50:34.756Z,5.30
2022-07-31T09:53:03.198Z,5.50
2022-07-31T09:55:31.328Z,5.30
2022-07-31T09:58:01.355Z,5.23
2022-07-31T10:00:30.164Z,5.40
2022-07-31T10:03:01.796Z,5.30
2022-07-31T10:05:31.473Z,5.40
2022-07-31T10:08:01.716Z,5.23
2022-07-31T10:10:31.210Z,5.23
2022-07-31T10:13:07.621Z,5.20
2022-07-31T10:15:39.645Z,5.13
2022-07-31T10:18:10.258Z,5.10
2022-07-31T10:20:42.997Z,5.80
2022-07-31T10:23:17.168Z,5.10
2022-07-31T10:25:53.719Z,5.07
2022-07-31T10:28:22.985Z,5.03
2022-07-31T10:30:51.870Z,5.00
2022-07-31T10:33:43.084Z,5.00
2022-07-31T10:36:20.754Z,5.03
2022-07-31T10:38:59.745Z,5.00
2022-07-31T10:41:47.131Z,5.00
2022-07-31T10:44:24.061Z,5.00
2022-07-31T10:46:52.229Z,4.90
2022-07-31T10:49:39.313Z,4.90
2022-07-31T10:52:08.256Z,4.83
2022-07-31T10:54:45.109Z,4.80
2022-07-31T10:57:23.631Z,5.43
2022-07-31T10:59:51.793Z,4.80
2022-07-31T11:02:31.254Z,4.80
2022-07-31T11:05:14.164Z,4.80
2022-07-31T11:07:45.859Z,4.70
2022-07-31T11:10:18.197Z,4.70
2022-07-31T11:12:47.008Z,4.60
2022-07-31T11:15:24.849Z,4.50
2022-07-31T11:18:16.600Z,4.50
2022-07-31T11:20:46.838Z,4.40
2022-07-31T11:23:17.569Z,4.40
2022-07-31T11:25:47.496Z,4.40
2022-07-31T11:28:21.461Z,4.60
2022-07-31T11:30:52.374Z,4.40
2022-07-31T11:33:31.682Z,4.43
2022-07-31T11:36:14.319Z,4.57
2022-07-31T11:38:47.557Z,4.40
2022-07-31T11:41:16.619Z,4.40
2022-07-31T11:43:46.287Z,4.50
2022-07-31T11:46:24.849Z,4.57
2022-07-31T11:48:53.495Z,4.47
2022-07-31T11:51:24.551Z,4.37
2022-07-31T11:53:57.426Z,4.40
2022-07-31T11:56:28.351Z,4.50
2022-07-31T11:58:58.927Z,4.60
2022-07-31T12:01:29.297Z,5.00
2022-07-31T12:04:07.506Z,4.80
2022-07-31T12:06:39.285Z,4.83
2022-07-31T12:09:07.658Z,5.30
2022-07-31T12:11:56.048Z,4.80
2022-07-31T12:14:32.844Z,4.60
2022-07-31T12:17:02.533Z,4.40
2022-07-31T12:19:38.617Z,4.50
2022-07-31T12:22:17.424Z,4.50
2022-07-31T12:24:47.404Z,4.67
2022-07-31T12:27:17.334Z,4.47
2022-07-31T12:29:45.925Z,4.63
2022-07-31T12:32:25.204Z,4.33
2022-07-31T12:35:03.734Z,5.93
2022-07-31T12:37:44.764Z,5.10
2022-07-31T12:40:25.077Z,5.83
2022-07-31T12:42:53.456Z,5.10
2022-07-31T12:45:37.785Z,6.07
2022-07-31T12:48:07.254Z,5.50
2022-07-31T12:50:35.666Z,5.23
2022-07-31T12:53:05.909Z,5.30
2022-07-31T12:55:35.162Z,7.20
2022-07-31T12:58:03.253Z,5.37
2022-07-31T13:00:31.344Z,5.33
2022-07-31T13:02:59.436Z,5.70
2022-07-31T13:05:27.619Z,5.40
2022-07-31T13:07:56.128Z,5.30
2022-07-31T13:10:32.286Z,5.27
2022-07-31T13:13:00.696Z,5.40
2022-07-31T13:15:30.471Z,5.23
2022-07-31T13:18:01.786Z,5.10
2022-07-31T13:20:30.992Z,5.10
2022-07-31T13:23:00.112Z,5.00
2022-07-31T13:25:31.532Z,4.87
2022-07-31T13:28:00.070Z,4.70
2022-07-31T13:30:28.859Z,4.40
2022-07-31T13:32:56.907Z,3.97
2022-07-31T13:35:28.509Z,3.65
2022-07-31T13:37:57.991Z,3.50
2022-07-31T13:40:40.428Z,3.00
2022-07-31T13:43:10.069Z,2.90
2022-07-31T13:45:38.521Z,2.95
2022-07-31T13:48:09.736Z,2.78
2022-07-31T13:50:39.501Z,2.83
2022-07-31T13:53:07.691Z,2.70
2022-07-31T13:55:36.185Z,2.67
2022-07-31T13:58:04.978Z,2.85
2022-07-31T14:00:35.483Z,3.95
2022-07-31T14:03:03.507Z,2.95
2022-07-31T14:05:40.165Z,3.30
2022-07-31T14:08:33.333Z,3.03
2022-07-31T14:10:57.249Z,2.80
2022-07-31T14:13:25.804Z,3.20
2022-07-31T14:15:55.329Z,7.10
2022-07-31T14:18:23.768Z,3.30
2022-07-31T14:20:52.149Z,3.50
2022-07-31T14:23:20.271Z,3.50
2022-07-31T14:25:54.466Z,3.30
2022-07-31T14:28:22.562Z,2.90
2022-07-31T14:30:50.607Z,3.00
2022-07-31T14:33:20.123Z,2.88
2022-07-31T14:35:54.566Z,2.70
2022-07-31T14:38:27.457Z,2.80
2022-07-31T14:40:56.296Z,3.00
2022-07-31T14:43:24.443Z,3.20
2022-07-31T14:45:52.571Z,3.40
2022-07-31T14:48:22.035Z,7.63
2022-07-31T14:50:50.244Z,3.90
2022-07-31T14:53:18.242Z,4.00
2022-07-31T14:55:46.436Z,4.13
2022-07-31T14:58:14.533Z,3.90
2022-07-31T15:00:42.722Z,4.00
2022-07-31T15:03:10.871Z,3.50
2022-07-31T15:06:40.847Z,3.28
2022-07-31T15:08:30.107Z,3.20
2022-07-31T15:10:58.143Z,3.30
2022-07-31T15:13:26.441Z,3.50
2022-07-31T15:15:54.616Z,3.70
2022-07-31T15:18:25.676Z,3.90
2022-07-31T15:20:55.444Z,4.00
2022-07-31T15:23:23.779Z,4.13
2022-07-31T15:25:51.960Z,4.30
2022-07-31T15:28:20.176Z,4.33
2022-07-31T15:30:48.271Z,4.30
2022-07-31T15:33:16.348Z,4.50
2022-07-31T15:35:44.383Z,4.63
2022-07-31T15:38:13.863Z,4.47
2022-07-31T15:40:42.045Z,4.50
2022-07-31T15:43:10.147Z,4.37
2022-07-31T15:45:38.244Z,4.30
2022-07-31T15:48:10.130Z,4.20
2022-07-31T15:50:39.244Z,4.30
2022-07-31T15:53:07.483Z,4.33
2022-07-31T15:55:37.062Z,4.30
2022-07-31T15:58:05.129Z,4.40
2022-07-31T16:00:33.443Z,4.40
2022-07-31T16:03:01.781Z,4.50
2022-07-31T16:05:37.144Z,4.43
2022-07-31T16:08:32.668Z,4.50
2022-07-31T16:10:58.933Z,4.67
2022-07-31T16:13:27.079Z,4.80
2022-07-31T16:15:55.504Z,4.77
2022-07-31T16:18:23.598Z,4.80
2022-07-31T16:20:51.777Z,4.83
2022-07-31T16:23:19.931Z,4.83
2022-07-31T16:25:48.250Z,4.97
2022-07-31T16:28:17.669Z,6.60
2022-07-31T16:30:46.656Z,4.97
2022-07-31T16:33:15.039Z,5.00
2022-07-31T16:35:43.258Z,5.00
2022-07-31T16:38:11.404Z,5.00
2022-07-31T16:40:39.580Z,5.00
2022-07-31T16:43:47.375Z,5.67
2022-07-31T16:45:58.751Z,4.63
2022-07-31T16:48:26.818Z,4.47
2022-07-31T16:50:55.263Z,4.17
2022-07-31T16:54:12.754Z,4.00
2022-07-31T16:56:13.022Z,4.00
2022-07-31T16:58:41.691Z,4.07
2022-07-31T17:01:58.749Z,4.30
2022-07-31T17:04:03.173Z,4.40
2022-07-31T17:06:37.358Z,4.50
2022-07-31T17:09:15.828Z,4.63
2022-07-31T17:11:48.055Z,4.67
2022-07-31T17:14:17.196Z,4.60
2022-07-31T17:16:49.169Z,4.60
2022-07-31T17:19:41.326Z,4.60
2022-07-31T17:22:08.259Z,4.83
2022-07-31T17:24:40.459Z,4.90
2022-07-31T17:27:09.911Z,4.97
2022-07-31T17:29:39.538Z,5.00
2022-07-31T17:32:11.179Z,5.03
2022-07-31T17:34:39.860Z,5.10
2022-07-31T17:37:08.605Z,5.10
2022-07-31T17:39:37.136Z,5.13
2022-07-31T17:42:06.089Z,5.13
2022-07-31T17:44:37.385Z,5.27
2022-07-31T17:47:06.477Z,5.20
2022-07-31T17:49:36.462Z,5.30
2022-07-31T17:52:05.624Z,5.30
2022-07-31T17:54:34.029Z,5.30
2022-07-31T17:57:02.677Z,5.70
2022-07-31T17:59:30.874Z,5.43
2022-07-31T18:02:00.763Z,5.47
2022-07-31T18:04:30.132Z,5.43
2022-07-31T18:07:01.181Z,5.40
2022-07-31T18:09:30.099Z,5.40
2022-07-31T18:11:59.140Z,5.50
2022-07-31T18:14:27.646Z,5.47
2022-07-31T18:16:55.963Z,5.50
2022-07-31T18:19:24.225Z,5.43
2022-07-31T18:21:53.359Z,5.40
2022-07-31T18:24:23.480Z,5.40
2022-07-31T18:26:53.691Z,5.47
2022-07-31T18:29:22.070Z,5.43
2022-07-31T18:31:50.548Z,5.40
2022-07-31T18:34:18.660Z,5.47
2022-07-31T18:36:52.906Z,5.40
2022-07-31T18:39:24.590Z,5.47
2022-07-31T18:41:54.360Z,5.50
2022-07-31T18:44:22.841Z,5.40
2022-07-31T18:46:51.116Z,5.47
2022-07-31T18:50:59.378Z,5.43
2022-07-31T18:52:08.961Z,5.43
2022-07-31T18:54:39.279Z,5.50
2022-07-31T18:57:08.062Z,5.40
2022-07-31T18:59:37.423Z,5.47
2022-07-31T19:02:07.828Z,5.50
2022-07-31T19:04:39.975Z,5.50
2022-07-31T19:07:08.663Z,5.30
2022-07-31T19:09:38.339Z,5.33
2022-07-31T19:12:08.603Z,5.40
2022-07-31T19:14:37.394Z,5.33
2022-07-31T19:17:05.805Z,5.40
2022-07-31T19:19:54.577Z,5.47
2022-07-31T19:22:25.970Z,5.47
2022-07-31T19:24:55.719Z,5.47
2022-07-31T19:27:34.165Z,5.40
2022-07-31T19:30:13.725Z,5.50
2022-07-31T19:32:42.050Z,5.40
2022-07-31T19:35:11.249Z,5.40
2022-07-31T19:37:39.610Z,5.30
2022-07-31T19:40:11.415Z,5.50
2022-07-31T19:42:42.193Z,5.50
2022-07-31T19:45:10.928Z,5.43
2022-07-31T19:47:39.203Z,5.43
2022-07-31T19:50:08.894Z,5.40
2022-07-31T19:52:36.894Z,5.43
2022-07-31T19:55:05.812Z,5.43
2022-07-31T19:57:35.464Z,5.50
2022-07-31T20:00:03.913Z,5.40
2022-07-31T20:02:31.967Z,5.50
2022-07-31T20:05:00.128Z,5.37
2022-07-31T20:07:32.808Z,5.40
2022-07-31T20:10:03.995Z,5.50
2022-07-31T20:12:32.030Z,5.47
2022-07-31T20:15:01.764Z,5.43
2022-07-31T20:17:30.191Z,5.40
2022-07-31T20:20:11.812Z,5.30
2022-07-31T20:22:43.977Z,5.53
2022-07-31T20:25:19.803Z,5.40
2022-07-31T20:27:49.374Z,5.37
2022-07-31T20:30:21.782Z,5.40
2022-07-31T20:32:50.379Z,5.30
2022-07-31T20:35:45.561Z,5.30
2022-07-31T20:38:08.604Z,5.33
2022-07-31T20:40:52.792Z,5.43
2022-07-31T20:43:22.771Z,5.50
2022-07-31T20:45:53.167Z,5.40
2022-07-31T20:48:24.356Z,5.40
2022-07-31T20:50:53.272Z,5.43
2022-07-31T20:53:22.919Z,5.50
2022-07-31T20:55:51.121Z,5.47
2022-07-31T20:58:20.769Z,5.33
